Time;durP1;ratioP1;P1;durP2;ratioP2;P2;SDS_P1;SDS_P2;PMS_P1;PMS_P2;Temp;Humidity;BMP_temperature;BMP_pressure;BME280_temperature;BME280_humidity;BME280_pressure;Samples;Min_cycle;Max_cycle;Signal;HPM_P1;HPM_P2
2022/05/20 00:02:03;;;;;;;10.45;4.15;;;;;;;-144.47;72.93;53233.47;4994522;28;20030;-65
2022/05/20 00:04:28;;;;;;;10.98;4.38;;;;;;;-144.47;72.85;53235.47;4998164;28;20068;-62
2022/05/20 00:06:54;;;;;;;18.52;5.40;;;;;;;-144.47;73.25;53203.69;4992160;28;20029;-64
2022/05/20 00:09:19;;;;;;;7.80;3.97;;;;;;;-144.47;72.68;53211.63;4994960;28;20083;-63
2022/05/20 00:11:44;;;;;;;11.43;4.47;;;;;;;-144.47;72.73;53197.72;4985410;28;20040;-63
2022/05/20 00:14:09;;;;;;;9.35;4.85;;;;;;;-144.47;72.56;53235.47;4996584;28;20536;-65
2022/05/20 00:16:35;;;;;;;14.68;4.90;;;;;;;-144.47;72.58;53185.81;4991911;28;20030;-64
2022/05/20 00:19:06;;;;;;;12.27;4.95;;;;;;;-144.47;72.30;53245.41;4995497;28;20490;-64
2022/05/20 00:21:32;;;;;;;8.63;4.70;;;;;;;-144.47;72.15;53221.56;5034791;22;20053;-68
2022/05/20 00:23:58;;;;;;;10.93;5.18;;;;;;;-144.47;72.23;53267.25;5035615;28;20067;-66
2022/05/20 00:26:24;;;;;;;9.93;4.80;;;;;;;-144.47;72.37;53253.34;5036106;28;20466;-68
2022/05/20 00:28:50;;;;;;;11.45;4.80;;;;;;;-144.47;72.16;53249.38;5036800;28;20522;-68
2022/05/20 00:31:16;;;;;;;13.30;4.97;;;;;;;-144.47;72.44;53221.56;5037317;28;20079;-67
2022/05/20 00:33:42;;;;;;;11.73;4.13;;;;;;;-144.47;72.05;53209.66;5043179;28;20036;-66
2022/05/20 00:36:08;;;;;;;10.77;4.68;;;;;;;-144.47;71.74;53227.53;5049557;28;20028;-67
2022/05/20 00:38:34;;;;;;;8.73;3.63;;;;;;;-144.47;71.78;53259.31;5049770;28;20025;-68
2022/05/20 00:41:03;;;;;;;9.63;3.92;;;;;;;-144.47;71.55;53211.63;5050383;28;20032;-68
2022/05/20 00:43:35;;;;;;;11.52;3.47;;;;;;;-144.47;71.41;53261.28;5050364;28;20098;-68
2022/05/20 00:46:10;;;;;;;14.52;3.35;;;;;;;-144.47;71.44;53207.66;5050187;28;20029;-68
2022/05/20 00:48:36;;;;;;;10.65;3.28;;;;;;;-144.47;71.25;53241.44;5049974;28;20029;-70
2022/05/20 00:51:23;;;;;;;7.82;3.80;;;;;;;-144.47;71.53;53235.47;5049842;28;20098;-67
2022/05/20 00:53:57;;;;;;;10.77;3.05;;;;;;;-144.47;71.34;53273.22;5050440;28;20025;-68
2022/05/20 00:56:30;;;;;;;9.77;3.42;;;;;;;-144.47;71.37;53225.53;5048225;28;20037;-66
2022/05/20 00:58:57;;;;;;;9.35;3.55;;;;;;;-144.47;71.58;53209.66;5048837;28;20492;-67
2022/05/20 01:01:22;;;;;;;11.30;3.53;;;;;;;-144.47;71.60;53211.63;5048063;28;20029;-67
2022/05/20 01:03:52;;;;;;;10.82;3.63;;;;;;;-144.47;71.75;53227.53;5047818;28;20087;-68
2022/05/20 01:06:18;;;;;;;13.88;3.85;;;;;;;-144.47;71.61;53277.19;5049734;28;20028;-68
2022/05/20 01:08:43;;;;;;;9.52;3.60;;;;;;;-144.47;71.69;53227.53;5049617;28;20032;-67
2022/05/20 01:11:08;;;;;;;6.47;3.60;;;;;;;-144.47;72.11;53221.56;5044844;28;20017;-66
2022/05/20 01:13:35;;;;;;;9.15;3.70;;;;;;;-144.47;72.43;53275.19;5047619;28;20534;-67
2022/05/20 01:16:07;;;;;;;11.73;4.13;;;;;;;-144.47;72.23;53253.34;5049644;28;20021;-67
2022/05/20 01:18:34;;;;;;;12.63;4.30;;;;;;;-144.47;72.30;53277.19;5046465;28;20075;-67
2022/05/20 01:21:01;;;;;;;9.95;4.20;;;;;;;-144.47;72.33;53231.50;5046007;28;20021;-66
2022/05/20 01:23:28;;;;;;;8.48;3.53;;;;;;;-144.47;72.48;53217.59;5049257;28;20036;-67
2022/05/20 01:25:57;;;;;;;6.93;3.55;;;;;;;-144.47;72.43;53243.41;5049678;28;20083;-69
2022/05/20 01:28:24;;;;;;;10.43;4.15;;;;;;;-144.47;72.19;53261.28;5049602;28;20074;-67
2022/05/20 01:30:53;;;;;;;9.50;4.15;;;;;;;-144.47;72.52;53261.28;5042504;28;20018;-66
2022/05/20 01:33:24;;;;;;;9.40;3.38;;;;;;;-144.47;72.25;53249.38;5046160;28;20025;-68
2022/05/20 01:35:49;;;;;;;7.50;4.10;;;;;;;-144.47;71.79;53253.34;5047736;28;20053;-68
2022/05/20 01:38:15;;;;;;;7.15;3.80;;;;;;;-144.47;72.03;53237.44;5048456;28;20067;-67
2022/05/20 01:40:55;;;;;;;16.55;4.90;;;;;;;-144.47;71.87;53211.63;5049105;28;20039;-68
2022/05/20 01:43:42;;;;;;;8.02;4.00;;;;;;;-144.47;72.10;53215.59;5048719;28;20017;-68
2022/05/20 01:46:11;;;;;;;6.30;3.35;;;;;;;-144.47;71.73;53249.38;5049227;28;20036;-68
2022/05/20 01:48:50;;;;;;;13.30;3.53;;;;;;;-144.47;72.37;53235.47;5047138;28;20104;-67
2022/05/20 01:51:21;;;;;;;6.28;3.15;;;;;;;-144.47;71.96;53251.34;5047602;28;20021;-69
2022/05/20 01:53:58;;;;;;;14.40;3.42;;;;;;;-144.47;72.10;53241.44;5048987;28;20453;-69
2022/05/20 01:56:46;;;;;;;9.75;3.80;;;;;;;-144.47;72.56;53273.22;5048192;28;20561;-69
2022/05/20 01:59:21;;;;;;;17.42;3.20;;;;;;;-144.47;72.14;53255.34;5035745;28;20033;-69
2022/05/20 02:01:57;;;;;;;13.40;4.20;;;;;;;-144.47;72.42;53257.31;5049123;28;20035;-69
2022/05/20 02:04:31;;;;;;;9.45;3.45;;;;;;;-144.47;72.83;53267.25;5048805;28;20033;-68
2022/05/20 02:07:02;;;;;;;9.27;3.50;;;;;;;-144.47;72.71;53249.38;5047934;28;20029;-66
2022/05/20 02:10:16;;;;;;;6.50;3.10;;;;;;;-144.47;72.68;53251.34;5048757;28;20051;-68
2022/05/20 02:12:47;;;;;;;6.35;3.30;;;;;;;-144.47;72.78;53243.41;5006517;28;20084;-70
2022/05/20 02:15:22;;;;;;;6.80;3.42;;;;;;;-144.47;72.72;53257.31;5033180;28;20098;-70
2022/05/20 02:17:57;;;;;;;11.25;4.07;;;;;;;-144.47;72.99;53217.59;5048680;28;20021;-68
2022/05/20 02:20:22;;;;;;;9.45;3.90;;;;;;;-144.47;73.08;53241.44;5048366;28;20025;-68
2022/05/20 02:22:53;;;;;;;10.82;4.18;;;;;;;-144.47;73.05;53259.31;5048559;28;20027;-68
2022/05/20 02:25:23;;;;;;;7.57;3.55;;;;;;;-144.47;73.07;53251.34;5038120;28;20044;-70
2022/05/20 02:27:55;;;;;;;6.85;3.65;;;;;;;-144.47;72.89;53271.22;5048903;28;20028;-68
2022/05/20 02:30:28;;;;;;;11.20;4.40;;;;;;;-144.47;73.02;53231.50;5040097;28;21348;-68
2022/05/20 02:33:00;;;;;;;12.35;4.00;;;;;;;-144.47;72.91;53253.34;5040031;28;20035;-68
2022/05/20 02:35:26;;;;;;;14.52;3.75;;;;;;;-144.47;73.26;53285.13;5048752;28;20520;-68
2022/05/20 02:37:53;;;;;;;10.77;4.57;;;;;;;-144.47;73.16;53261.28;5047739;28;20044;-69
2022/05/20 02:40:20;;;;;;;14.32;4.70;;;;;;;-144.47;72.85;53253.34;5047123;28;20029;-68
2022/05/20 02:42:45;;;;;;;12.40;4.35;;;;;;;-144.47;73.27;53253.34;5048451;28;20106;-69
2022/05/20 02:45:13;;;;;;;14.40;4.20;;;;;;;-144.47;73.14;53251.34;5048773;28;20028;-67
2022/05/20 02:47:38;;;;;;;14.07;4.10;;;;;;;-144.47;72.85;53265.25;5047282;28;20454;-67
2022/05/20 02:50:07;;;;;;;11.57;4.40;;;;;;;-144.47;73.30;53227.53;5048455;28;20017;-66
2022/05/20 02:52:33;;;;;;;11.07;4.03;;;;;;;-144.47;72.93;53247.38;5047863;28;20523;-67
2022/05/20 02:54:58;;;;;;;11.85;4.40;;;;;;;-144.47;72.92;53243.41;5051806;28;20135;-68
2022/05/20 02:57:24;;;;;;;10.00;4.82;;;;;;;-144.47;72.89;53205.66;5052144;28;20027;-70
2022/05/20 03:05:19;;;;;;;10.82;4.60;;;;;;;-144.47;73.25;53227.53;5051491;28;20036;-68
2022/05/20 03:07:44;;;;;;;12.25;4.20;;;;;;;-144.47;72.83;53201.69;5049325;28;20036;-68
2022/05/20 03:10:10;;;;;;;9.45;4.43;;;;;;;-144.47;73.10;53269.22;5045171;28;20400;-69
2022/05/20 03:12:36;;;;;;;14.98;4.82;;;;;;;-144.47;73.05;53245.41;5042107;28;20029;-66
2022/05/20 03:15:07;;;;;;;12.25;5.18;;;;;;;-144.47;73.32;53263.28;5050802;28;20090;-65
2022/05/20 03:17:33;;;;;;;11.52;4.78;;;;;;;-144.47;73.60;53235.47;5046781;28;20021;-68
2022/05/20 03:19:58;;;;;;;8.10;4.55;;;;;;;-144.47;73.29;53217.59;5045416;28;20028;-68
2022/05/20 03:22:23;;;;;;;11.57;4.93;;;;;;;-144.47;72.99;53221.56;5041415;28;20025;-67
2022/05/20 03:24:49;;;;;;;14.93;4.30;;;;;;;-144.47;72.94;53217.59;5049871;28;20052;-68
2022/05/20 03:27:16;;;;;;;12.45;4.80;;;;;;;-144.47;72.71;53241.44;5051415;28;20024;-68
2022/05/20 03:29:45;;;;;;;11.55;4.63;;;;;;;-144.47;72.30;53277.19;5051129;28;20031;-67
2022/05/20 03:32:11;;;;;;;;;;;;;;;-144.47;72.18;53265.25;5036184;28;20028;-68
2022/05/20 03:34:38;;;;;;;12.45;4.38;;;;;;;-144.47;72.02;53225.53;5050394;28;19908;-66
2022/05/20 03:37:04;;;;;;;11.40;5.10;;;;;;;-144.47;72.27;53253.34;5049885;28;20021;-67
2022/05/20 03:39:29;;;;;;;13.57;5.10;;;;;;;-144.47;72.11;53235.47;5050341;28;20132;-66
2022/05/20 03:41:55;;;;;;;12.13;4.85;;;;;;;-144.47;72.14;53243.41;5051320;28;20017;-68
2022/05/20 03:44:21;;;;;;;10.32;4.45;;;;;;;-144.47;72.20;53219.56;5049615;28;20029;-67
2022/05/20 03:46:52;;;;;;;10.55;4.18;;;;;;;-144.47;71.94;53269.22;5051168;28;20110;-67
2022/05/20 03:49:19;;;;;;;8.55;4.70;;;;;;;-144.47;71.96;53251.34;5050998;28;20502;-69
2022/05/20 03:51:47;;;;;;;8.98;5.05;;;;;;;-144.47;72.06;53239.44;5045216;28;20036;-67
2022/05/20 03:54:15;;;;;;;9.38;4.38;;;;;;;-144.47;71.86;53267.25;5042822;28;20075;-65
2022/05/20 03:56:40;;;;;;;14.10;4.80;;;;;;;-144.47;72.07;53277.19;5051016;28;20115;-69
2022/05/20 03:59:10;;;;;;;15.10;5.05;;;;;;;-144.47;71.83;53245.41;5050705;28;20024;-71
2022/05/20 04:04:21;;;;;;;10.35;4.80;;;;;;;-144.47;72.20;53221.56;5040167;28;20464;-68
2022/05/20 04:06:47;;;;;;;13.48;4.65;;;;;;;-144.47;71.94;53265.25;5049866;28;20044;-69
2022/05/20 04:09:12;;;;;;;12.20;4.95;;;;;;;-144.47;72.05;53229.50;5049334;28;20116;-68
2022/05/20 04:11:38;;;;;;;10.52;5.38;;;;;;;-144.47;71.53;53259.31;5050354;28;20013;-68
2022/05/20 04:14:04;;;;;;;23.90;5.50;;;;;;;-144.47;71.50;53221.56;5048081;28;20025;-70
2022/05/20 04:16:29;;;;;;;11.65;5.32;;;;;;;-144.47;71.51;53277.19;5033368;28;20029;-67
2022/05/20 04:18:54;;;;;;;14.55;5.72;;;;;;;-144.47;71.65;53247.38;5046428;28;20104;-68
2022/05/20 04:21:20;;;;;;;15.32;4.85;;;;;;;-144.47;71.39;53279.16;5040608;28;20065;-69
2022/05/20 04:23:45;;;;;;;9.05;5.13;;;;;;;-144.47;71.38;53253.34;5049365;28;20402;-68
2022/05/20 04:26:11;;;;;;;18.73;6.15;;;;;;;-144.47;71.61;53271.22;5049075;28;20032;-67
2022/05/20 04:28:37;;;;;;;17.00;5.13;;;;;;;-144.47;71.31;53253.34;5046222;28;20029;-67
2022/05/20 04:31:04;;;;;;;12.88;4.97;;;;;;;-144.47;71.10;53203.69;5048596;28;20521;-67
2022/05/20 04:33:30;;;;;;;10.98;5.10;;;;;;;-144.47;71.53;53253.34;5048700;28;20036;-69
2022/05/20 04:35:55;;;;;;;14.02;5.80;;;;;;;-144.47;70.88;53237.44;5049172;28;20029;-67
2022/05/20 04:38:21;;;;;;;12.85;5.00;;;;;;;-144.47;70.80;53281.16;5049882;28;20033;-67
2022/05/20 04:48:58;;;;;;;12.48;5.88;;;;;;;-144.47;70.02;53243.41;5049865;28;20035;-71
2022/05/20 04:51:24;;;;;;;20.88;5.90;;;;;;;-144.47;69.76;53273.22;5044744;28;20022;-69
2022/05/20 04:56:33;;;;;;;13.50;5.80;;;;;;;-144.47;68.66;53247.38;5045750;28;20032;-68
2022/05/20 04:58:58;;;;;;;11.15;5.53;;;;;;;-144.47;68.49;53229.50;5038914;28;20025;-67
2022/05/20 05:01:23;;;;;;;14.60;5.65;;;;;;;-144.47;68.25;53231.50;5033340;28;20033;-68
2022/05/20 05:03:48;;;;;;;16.83;5.72;;;;;;;-144.47;67.81;53225.53;5042081;28;20028;-68
2022/05/20 05:06:14;;;;;;;10.00;5.68;;;;;;;-144.47;67.48;53205.66;5035974;28;20031;-68
2022/05/20 05:08:39;;;;;;;14.38;5.18;;;;;;;-144.47;67.55;53237.44;5041956;28;20028;-69
2022/05/20 05:11:04;;;;;;;13.70;5.65;;;;;;;-144.47;67.14;53247.38;5035451;28;20040;-68
2022/05/20 05:13:30;;;;;;;15.63;6.97;;;;;;;-144.47;67.44;53267.25;5040280;28;20513;-68
2022/05/20 05:15:55;;;;;;;15.65;7.07;;;;;;;-144.47;67.21;53225.53;5045591;28;20036;-68
2022/05/20 05:18:23;;;;;;;24.77;7.05;;;;;;;-144.47;67.48;53207.66;5042713;28;20098;-68
2022/05/20 05:20:53;;;;;;;16.23;5.73;;;;;;;-144.47;66.68;53207.66;5038632;28;20025;-67
2022/05/20 05:23:20;;;;;;;15.07;6.57;;;;;;;-144.47;66.14;53193.75;5038495;28;20484;-67
2022/05/20 05:25:46;;;;;;;18.15;7.18;;;;;;;-144.47;65.71;53233.47;5044268;28;20032;-68
2022/05/20 05:28:11;;;;;;;20.88;7.82;;;;;;;-144.47;65.54;53227.53;5041244;28;20021;-69
2022/05/20 05:30:37;;;;;;;14.15;7.22;;;;;;;-144.47;65.30;53249.38;5037653;28;20480;-69
2022/05/20 05:33:03;;;;;;;26.90;8.50;;;;;;;-144.47;65.71;53249.38;5041794;28;20017;-69
2022/05/20 05:35:30;;;;;;;15.98;9.15;;;;;;;-144.47;64.88;53243.41;5048646;28;20099;-69
2022/05/20 05:37:56;;;;;;;23.33;8.20;;;;;;;-144.47;65.45;53217.59;5038867;28;20020;-68
2022/05/20 05:40:25;;;;;;;20.25;8.23;;;;;;;-144.47;65.41;53213.63;5038369;28;20017;-69
2022/05/20 05:42:50;;;;;;;;;;;;;;;-144.47;65.02;53227.53;5048937;28;20541;-69
2022/05/20 05:45:19;;;;;;;16.45;8.35;;;;;;;-144.47;64.70;53225.53;5037057;28;19917;-69
2022/05/20 05:47:50;;;;;;;21.63;8.35;;;;;;;-144.47;64.51;53219.56;5037292;28;20025;-66
2022/05/20 05:50:15;;;;;;;18.48;9.00;;;;;;;-144.47;65.01;53241.44;5045604;28;20515;-68
2022/05/20 05:52:41;;;;;;;18.92;9.05;;;;;;;-144.47;64.54;53215.59;5035481;28;20021;-71
2022/05/20 05:55:07;;;;;;;21.02;8.15;;;;;;;-144.47;64.35;53229.50;5045560;28;20025;-67
2022/05/20 05:57:33;;;;;;;24.67;8.25;;;;;;;-144.47;63.73;53205.66;5048532;28;20048;-69
2022/05/20 05:59:58;;;;;;;23.00;10.70;;;;;;;-144.47;63.06;53231.50;5048073;28;20112;-67
2022/05/20 06:02:24;;;;;;;18.30;9.65;;;;;;;-144.47;62.63;53237.44;5040923;28;20028;-70
2022/05/20 06:04:51;;;;;;;19.30;9.35;;;;;;;-144.47;62.38;53191.78;5039429;28;20609;-70
2022/05/20 06:07:17;;;;;;;20.83;9.32;;;;;;;-144.47;62.20;53185.81;5049076;28;20083;-70
2022/05/20 06:09:42;;;;;;;17.48;9.45;;;;;;;-144.47;62.04;53221.56;5048599;28;20456;-70
2022/05/20 06:12:08;;;;;;;23.38;8.93;;;;;;;-144.47;61.46;53251.34;5045755;28;20013;-69
2022/05/20 06:14:33;;;;;;;16.42;8.45;;;;;;;-144.47;61.26;53229.50;5038864;28;20025;-68
2022/05/20 06:16:58;;;;;;;17.38;9.32;;;;;;;-144.47;60.94;53205.66;5041166;28;20095;-66
2022/05/20 06:19:24;;;;;;;19.02;8.45;;;;;;;-144.47;60.49;53205.66;5038317;28;20569;-67
2022/05/20 06:21:49;;;;;;;17.08;8.45;;;;;;;-144.47;60.41;53205.66;5068556;23;20053;-66
2022/05/20 06:24:15;;;;;;;22.88;8.60;;;;;;;-144.47;60.59;53201.69;5035719;28;20022;-62
2022/05/20 06:26:41;;;;;;;19.60;9.30;;;;;;;-144.47;60.00;53193.75;5035108;28;20484;-65
2022/05/20 06:29:07;;;;;;;25.67;8.40;;;;;;;-144.47;60.08;53223.56;5031898;28;20658;-65
2022/05/20 06:31:33;;;;;;;15.25;8.27;;;;;;;-144.47;60.00;53187.78;5007850;28;20014;-63
2022/05/20 06:33:58;;;;;;;17.58;8.32;;;;;;;-144.47;60.00;53227.53;5015892;28;20077;-65
2022/05/20 06:41:54;;;;;;;18.80;8.52;;;;;;;-144.47;60.21;53237.44;5013212;28;20064;-66
2022/05/20 06:44:20;;;;;;;15.15;8.02;;;;;;;-144.47;59.95;53195.75;5012726;28;20057;-64
2022/05/20 06:46:46;;;;;;;18.73;8.27;;;;;;;-144.47;60.05;53193.75;5011825;28;20535;-66
2022/05/20 06:49:11;;;;;;;19.67;9.70;;;;;;;-144.47;59.67;53189.78;5012404;28;20053;-67
2022/05/20 06:51:37;;;;;;;15.90;9.00;;;;;;;-144.47;59.35;53191.78;4994797;28;20046;-66
2022/05/20 06:54:05;;;;;;;15.40;7.90;;;;;;;-144.47;59.28;53183.81;4995767;28;20489;-67
2022/05/20 06:56:31;;;;;;;14.87;8.37;;;;;;;-144.47;59.69;53197.72;4995300;28;20117;-65
2022/05/20 06:59:01;;;;;;;17.85;8.85;;;;;;;-144.47;59.93;53175.88;5012380;28;20109;-66
2022/05/20 07:01:28;;;;;;;24.13;8.75;;;;;;;-144.47;59.65;53205.66;5012555;28;20029;-66
2022/05/20 07:03:54;;;;;;;13.88;8.73;;;;;;;-144.47;59.52;53179.84;5012295;28;20448;-66
2022/05/20 07:06:19;;;;;;;17.83;8.77;;;;;;;-144.47;59.45;53201.69;5011976;28;20038;-65
2022/05/20 07:08:48;;;;;;;19.13;8.77;;;;;;;-144.47;59.36;53233.47;4992416;28;20445;-66
2022/05/20 07:11:14;;;;;;;22.70;9.95;;;;;;;-144.47;59.28;53219.56;5005849;28;20030;-65
2022/05/20 07:13:40;;;;;;;16.98;9.57;;;;;;;-144.47;58.45;53205.66;5012795;28;20044;-64
2022/05/20 07:16:07;;;;;;;15.52;8.45;;;;;;;-144.47;57.50;53201.69;5013982;28;20113;-66
2022/05/20 07:18:34;;;;;;;19.40;9.40;;;;;;;-144.47;57.57;53199.72;5010481;28;20171;-65
2022/05/20 07:20:59;;;;;;;20.40;10.57;;;;;;;-144.47;57.47;53189.78;5020947;28;20035;-65
2022/05/20 07:23:28;;;;;;;16.30;9.40;;;;;;;-144.47;56.91;53207.66;5014770;28;20022;-66
2022/05/20 07:25:53;;;;;;;;;;;;;;;-144.47;57.09;53193.75;4992588;28;20191;-67
2022/05/20 07:28:18;;;;;;;20.33;9.40;;;;;;;-144.47;57.23;53150.06;5012813;28;20355;-63
2022/05/20 07:30:44;;;;;;;15.70;9.68;;;;;;;-144.47;57.25;53165.94;5017222;28;20022;-64
2022/05/20 07:33:09;;;;;;;17.15;9.50;;;;;;;-144.47;57.26;53215.59;5012409;28;20559;-65
2022/05/20 07:35:36;;;;;;;18.45;9.23;;;;;;;-144.47;56.38;53160.00;5013669;28;20036;-67
2022/05/20 07:38:02;;;;;;;18.10;9.40;;;;;;;-144.47;55.88;53177.88;5012176;28;20044;-66
2022/05/20 07:40:28;;;;;;;16.40;9.40;;;;;;;-144.47;55.72;53169.91;5010858;28;20048;-67
2022/05/20 07:42:54;;;;;;;20.58;10.32;;;;;;;-144.47;55.87;53144.09;5012166;28;20664;-67
2022/05/20 07:45:19;;;;;;;17.92;9.27;;;;;;;-144.47;55.78;53158.00;5012233;28;20025;-66
2022/05/20 07:47:45;;;;;;;23.10;10.02;;;;;;;-144.47;55.73;53140.13;5011820;28;20030;-66
2022/05/20 07:50:11;;;;;;;21.02;9.48;;;;;;;-144.47;55.74;53185.81;5010899;28;20018;-64
2022/05/20 07:55:25;;;;;;;;;;;;;;;-144.47;53.79;53183.81;5015913;28;21231;-65
2022/05/20 07:57:52;;;;;;;25.08;9.82;;;;;;;-144.47;53.63;53189.78;5011460;28;19909;-63
2022/05/20 08:00:19;;;;;;;16.95;10.13;;;;;;;-144.47;53.61;53163.97;5012286;28;20108;-67
2022/05/20 08:02:44;;;;;;;21.02;10.77;;;;;;;-144.47;53.89;53197.72;5011489;28;20057;-65
2022/05/20 08:05:11;;;;;;;18.58;10.70;;;;;;;-144.47;53.59;53179.84;4993599;28;20050;-66
2022/05/20 08:07:41;;;;;;;14.40;10.18;;;;;;;-144.47;54.58;53154.03;5011288;28;20030;-67
2022/05/20 08:10:13;;;;;;;17.90;10.40;;;;;;;-144.47;54.30;53160.00;4994030;28;20533;-67
2022/05/20 08:12:38;;;;;;;18.38;9.93;;;;;;;-144.47;54.63;53167.94;4990744;28;20102;-64
2022/05/20 08:15:04;;;;;;;23.17;11.30;;;;;;;-144.47;54.19;53177.88;5008505;28;20117;-65
2022/05/20 08:17:32;;;;;;;25.33;11.00;;;;;;;-144.47;54.61;53173.88;5010935;28;20021;-67
2022/05/20 08:19:57;;;;;;;22.45;11.55;;;;;;;-144.47;54.50;53171.91;5010553;28;20018;-64
2022/05/20 08:22:23;;;;;;;22.55;13.07;;;;;;;-144.47;54.17;53169.91;5010677;28;20025;-62
2022/05/20 08:24:52;;;;;;;18.10;10.85;;;;;;;-144.47;53.96;53183.81;5011553;28;20034;-67
2022/05/20 08:27:18;;;;;;;22.23;11.40;;;;;;;-144.47;54.17;53177.88;4974274;28;20501;-67
2022/05/20 08:29:43;;;;;;;22.65;12.60;;;;;;;-144.47;53.38;53171.91;4980903;28;20030;-65
2022/05/20 08:32:08;;;;;;;22.38;12.15;;;;;;;-144.47;52.51;53177.88;5014849;28;20481;-64
2022/05/20 08:34:34;;;;;;;21.17;11.90;;;;;;;-144.47;52.37;53171.91;5012264;28;20104;-65
2022/05/20 08:36:59;;;;;;;19.88;11.75;;;;;;;-144.47;52.55;53156.00;5010785;28;20093;-67
2022/05/20 08:39:27;;;;;;;19.27;12.55;;;;;;;-144.47;51.84;53171.91;5009866;28;20044;-64
2022/05/20 08:41:53;;;;;;;23.70;14.13;;;;;;;-144.47;51.43;53177.88;5010776;28;20024;-63
2022/05/20 08:44:21;;;;;;;21.08;13.70;;;;;;;-144.47;51.32;53185.81;5010385;28;20032;-68
2022/05/20 08:46:48;;;;;;;24.33;14.95;;;;;;;-144.47;50.98;53154.03;5011213;28;20104;-67
2022/05/20 08:49:18;;;;;;;22.38;13.80;;;;;;;-144.47;50.28;53154.03;5010305;28;20038;-65
2022/05/20 08:51:50;;;;;;;24.33;13.13;;;;;;;-144.47;49.86;53169.91;5005221;28;20100;-65
2022/05/20 08:54:15;;;;;;;26.38;14.13;;;;;;;-144.47;49.75;53193.75;5006654;28;20097;-68
2022/05/20 08:56:41;;;;;;;21.08;14.48;;;;;;;-144.47;48.89;53130.19;5008725;28;20032;-64
2022/05/20 08:59:11;;;;;;;25.52;16.50;;;;;;;-144.47;48.44;53181.84;5003327;28;20092;-65
2022/05/20 09:01:42;;;;;;;26.40;14.70;;;;;;;-144.47;48.29;53158.00;4985932;28;20498;-65
2022/05/20 09:04:10;;;;;;;20.48;14.00;;;;;;;-144.47;47.86;53183.81;5005220;28;20076;-65
2022/05/20 09:06:55;;;;;;;23.48;16.05;;;;;;;-144.47;48.12;53177.88;5004183;28;20018;-63
2022/05/20 09:09:20;;;;;;;25.35;15.82;;;;;;;-144.47;48.92;53191.78;4985779;28;20060;-65
2022/05/20 09:11:54;;;;;;;30.33;15.43;;;;;;;-144.47;49.26;53167.94;5002373;28;20041;-66
2022/05/20 09:17:15;;;;;;;25.15;17.25;;;;;;;-144.47;48.79;53146.09;5003095;28;20064;-67
2022/05/20 09:20:04;;;;;;;26.55;15.98;;;;;;;-144.47;48.78;53165.94;4999952;28;20030;-66
2022/05/20 09:22:33;;;;;;;25.98;17.10;;;;;;;-144.47;48.61;53154.03;5005268;28;20121;-65
2022/05/20 09:24:59;;;;;;;24.92;16.58;;;;;;;-144.47;49.19;53169.91;5004051;28;20056;-66
2022/05/20 09:27:31;;;;;;;23.48;15.65;;;;;;;-144.47;49.14;53195.75;5006002;28;20103;-66
2022/05/20 09:29:59;;;;;;;27.33;16.73;;;;;;;-144.47;48.96;53191.78;5000110;28;20025;-65
2022/05/20 09:32:44;;;;;;;26.10;15.63;;;;;;;-144.47;48.57;53152.03;5002232;28;20058;-66
2022/05/20 09:35:18;;;;;;;24.85;15.48;;;;;;;-144.47;48.56;53150.06;5003035;28;20041;-63
2022/05/20 09:37:46;;;;;;;31.85;16.58;;;;;;;-144.47;48.77;53169.91;5004678;28;20068;-64
2022/05/20 09:40:38;;;;;;;24.40;15.68;;;;;;;-144.47;48.96;53171.91;5022567;28;20032;-64
2022/05/20 09:43:10;;;;;;;24.30;16.70;;;;;;;-144.47;48.69;53150.06;4994434;28;20038;-65
2022/05/20 09:45:42;;;;;;;33.40;16.55;;;;;;;-144.47;48.86;53177.88;5008914;28;20033;-64
2022/05/20 09:48:08;;;;;;;25.67;14.90;;;;;;;-144.47;48.56;53167.94;5001654;28;20030;-66
2022/05/20 09:50:38;;;;;;;25.67;14.77;;;;;;;-144.47;48.67;53132.19;5003631;28;20106;-66
2022/05/20 09:53:15;;;;;;;24.80;14.93;;;;;;;-144.47;47.91;53160.00;5001823;28;20121;-65
2022/05/20 09:55:45;;;;;;;40.75;16.77;;;;;;;-144.47;47.53;53161.97;5005252;28;20025;-64
2022/05/20 09:58:16;;;;;;;23.63;15.63;;;;;;;-144.47;47.52;53165.94;5012562;28;20038;-65
2022/05/20 10:01:13;;;;;;;25.17;15.70;;;;;;;-144.47;47.60;53165.94;5008628;28;20053;-64
2022/05/20 10:03:49;;;;;;;27.60;17.40;;;;;;;-144.47;47.11;53156.00;5010104;28;20026;-67
2022/05/20 10:06:28;;;;;;;27.42;18.00;;;;;;;-144.47;47.58;53177.88;5009755;28;20045;-63
2022/05/20 10:09:37;;;;;;;31.55;17.10;;;;;;;-144.47;47.55;53161.97;4988330;28;20647;-65
2022/05/20 10:12:12;;;;;;;24.70;15.68;;;;;;;-144.47;47.26;53118.28;5010569;28;20087;-63
2022/05/20 10:14:56;;;;;;;22.75;14.80;;;;;;;-144.47;46.99;53173.88;5031873;28;20496;-64
2022/05/20 10:17:43;;;;;;;26.67;15.60;;;;;;;-144.47;46.74;53124.22;5004452;28;20026;-66
2022/05/20 10:20:27;;;;;;;25.42;15.23;;;;;;;-144.47;46.01;53124.22;5013431;28;20026;-64
2022/05/20 10:23:20;;;;;;;20.27;13.98;;;;;;;-144.47;45.75;53150.06;5013033;28;20014;-65
2022/05/20 10:25:58;;;;;;;21.08;13.23;;;;;;;-144.47;46.13;53169.91;5005634;28;20036;-65
2022/05/20 10:34:15;;;;;;;25.70;15.07;;;;;;;-144.47;47.08;53179.84;5013577;28;20095;-64
2022/05/20 10:37:07;;;;;;;20.30;14.50;;;;;;;-144.47;46.99;53148.06;5018829;28;20021;-67
2022/05/20 10:40:03;;;;;;;23.90;14.65;;;;;;;-144.47;46.05;53167.94;4998219;28;20037;-66
2022/05/20 10:42:58;;;;;;;19.52;12.88;;;;;;;-144.47;46.38;53140.13;5016304;28;20037;-65
2022/05/20 10:48:36;;;;;;;22.45;13.20;;;;;;;-144.47;45.93;53144.09;5014449;28;20091;-64
2022/05/20 10:51:16;;;;;;;19.20;12.82;;;;;;;-144.47;45.54;53144.09;5017937;28;20036;-66
2022/05/20 10:54:12;;;;;;;16.00;11.18;;;;;;;-144.47;45.23;53161.97;5012159;28;20025;-66
2022/05/20 10:56:53;;;;;;;25.05;10.70;;;;;;;-144.47;44.57;53120.25;5017655;28;20135;-64
2022/05/20 10:59:51;;;;;;;16.85;11.02;;;;;;;-144.47;44.61;53152.03;5014917;28;20044;-67
2022/05/20 11:02:29;;;;;;;14.85;10.30;;;;;;;-144.47;44.29;53140.13;5010756;28;20021;-64
2022/05/20 11:05:11;;;;;;;14.65;10.18;;;;;;;-144.47;44.76;53136.16;5014380;28;20056;-66
2022/05/20 11:08:04;;;;;;;17.75;10.02;;;;;;;-144.47;43.76;53146.09;5011506;28;20460;-66
2022/05/20 11:10:44;;;;;;;19.13;11.30;;;;;;;-144.47;43.38;53102.38;5015644;28;20033;-66
2022/05/20 11:13:33;;;;;;;20.83;10.63;;;;;;;-144.47;44.15;53140.13;5012370;28;20025;-67
2022/05/20 11:16:44;;;;;;;16.10;10.10;;;;;;;-144.47;44.17;53138.13;5013301;28;20029;-66
2022/05/20 11:19:28;;;;;;;19.40;10.77;;;;;;;-144.47;43.56;53146.09;5014776;28;20567;-65
2022/05/20 11:21:59;;;;;;;18.40;10.35;;;;;;;-144.47;43.76;53130.19;5013574;28;20037;-68
2022/05/20 11:25:01;;;;;;;23.17;10.32;;;;;;;-144.47;44.01;53134.16;5014443;28;20046;-68
2022/05/20 11:27:55;;;;;;;16.35;10.65;;;;;;;-144.47;43.24;53128.22;4996259;28;20033;-67
2022/05/20 11:30:32;;;;;;;20.52;11.63;;;;;;;-144.47;43.41;53160.00;5014574;28;20508;-66
2022/05/20 11:33:15;;;;;;;20.20;10.75;;;;;;;-144.47;43.15;53104.38;5017207;28;20026;-66
2022/05/20 11:35:53;;;;;;;17.27;9.63;;;;;;;-144.47;43.05;53130.19;5012904;28;20132;-66
2022/05/20 11:39:06;;;;;;;16.10;10.48;;;;;;;-144.47;42.52;53142.09;5010480;28;20045;-67
2022/05/20 11:42:16;;;;;;;15.40;8.82;;;;;;;-144.47;42.17;53126.22;4962922;28;20050;-65
2022/05/20 11:45:26;;;;;;;13.77;9.55;;;;;;;-144.47;42.28;53122.25;4936907;28;20087;-68
2022/05/20 11:48:02;;;;;;;20.10;10.18;;;;;;;-144.47;42.04;53108.34;5016811;28;20037;-68
2022/05/20 11:51:08;;;;;;;16.17;11.82;;;;;;;-144.47;41.54;53138.13;5011178;28;20112;-68
2022/05/20 11:53:42;;;;;;;14.80;9.40;;;;;;;-144.47;41.44;53118.28;5014912;28;20026;-67
2022/05/20 11:56:19;;;;;;;17.33;11.40;;;;;;;-144.47;42.27;53106.34;5011732;28;20025;-68
2022/05/20 11:58:57;;;;;;;20.20;10.70;;;;;;;-144.47;41.66;53102.38;5012534;28;20033;-67
2022/05/20 12:01:24;;;;;;;14.82;9.68;;;;;;;-144.47;41.83;53106.34;5011748;28;20610;-66
2022/05/20 12:06:51;;;;;;;15.25;9.95;;;;;;;-144.47;41.38;53098.41;4991169;28;20042;-67
2022/05/20 12:09:37;;;;;;;16.30;9.82;;;;;;;-144.47;41.18;53126.22;5013191;28;20036;-67